Oconee, IL (62553)

12:36 PM CDT on September 30, 2014 (GMT -0500)
Pana | Change Station
CLOSE
Current Station
Personal Weather Station
Location: Pana, IL
Elevation: 692 ft
Nearby Weather Stations

Elev 692 ft 39.39 °N, 89.08 °W | Updated 5 seconds ago

Mostly Cloudy
Mostly Cloudy
71.6 °F
Feels Like 74 °F
N
2.0
Wind Variable Wind from WNW
Gusts 4.0 mph

Today
High -- | Low -- °F
--% Chance of Precip.
Yesterday
High -- | Low -- °F
Precip. -- in
6:51 AM 6:40 PM
Waxing Crescent, 38% visible
Pressure 30.00 in
Visibility 10.0 miles
Clouds Scattered Clouds 1200 ft
Heat Index 74 °F
Dew Point 61 °F
Humidity 70%
Rainfall 0.00 in
Snow Depth Not available.
UV 5 out of 12
Pollen 3.60 out of 12
Air Quality Not available.
Flu Activity Not available.
METAR KTAZ 301715Z AUTO 00000KT 10SM SCT012 18/14 A3000 RMK AO2

More Conditions Fewer Conditions

Pressure 30.00 in
Visibility 10.0 miles
Clouds Scattered Clouds 1200 ft
Heat Index 74 °F
Dew Point 61 °F
Humidity 70%
Rainfall 0.00 in
Snow Depth Not available.
UV 5 out of 12
Pollen 3.60 out of 12
Air Quality Not available.
Flu Activity Not available.
METAR KTAZ 301715Z AUTO 00000KT 10SM SCT012 18/14 A3000 RMK AO2

More Conditions Fewer Conditions

10-Day Weather Forecast

Almanac

Astronomy

Sep. 30, 2014 Rise Set
Actual Time 6:51 AM CDT 6:40 PM CDT
Civil Twilight 6:24 AM CDT 7:07 PM CDT
Nautical Twilight 5:53 AM CDT 7:38 PM CDT
Astronomical Twilight 5:22 AM CDT 8:09 PM CDT
Moon 12:57 PM CDT 11:12 PM CDT
Length of Visible Light 12h 42m
Length of Day
11h 49m
Tomorrow will be 2m 32s shorter.
Waxing Crescent, 38% of the Moon is Illuminated
Today
Waxing Crescent
Oct 1
First Quarter
Oct 8
Full
Oct 15
Last Quarter
Oct 23
New

Today's Extremes

State Highs State Lows

Community

WunderPhotos

Upload Photos

1,757,692 photos uploaded!

Nearby

Snow Depth

Station Depth Elevation
No new snow has been reported.

Earthquake Activity

City Distance Mag. Time & Date
No recent earthquake activity has been reported nearby.
Minimum magnitude displayed is 2.5.

Coastal Water Temperatures

Place Temperature
No Stations Reporting

Nearby Weather Stations